createdAt,value
2022-11-05T00:02:01.541Z,14.03
2022-11-05T00:04:50.030Z,12.53
2022-11-05T00:07:45.413Z,15.80
2022-11-05T00:10:20.546Z,10.20
2022-11-05T00:13:06.834Z,14.47
2022-11-05T00:15:53.221Z,13.37
2022-11-05T00:18:22.060Z,14.77
2022-11-05T00:20:50.921Z,18.07
2022-11-05T00:23:38.765Z,13.80
2022-11-05T00:26:09.931Z,13.53
2022-11-05T00:28:40.977Z,16.93
2022-11-05T00:31:11.907Z,14.83
2022-11-05T00:33:41.154Z,17.67
2022-11-05T00:36:11.642Z,14.53
2022-11-05T00:38:41.701Z,15.07
2022-11-05T00:41:10.504Z,14.47
2022-11-05T00:43:56.157Z,14.40
2022-11-05T00:46:24.829Z,16.77
2022-11-05T00:49:11.083Z,17.73
2022-11-05T00:51:39.848Z,17.23
2022-11-05T00:54:10.125Z,14.17
2022-11-05T00:56:38.786Z,14.70
2022-11-05T00:59:07.830Z,14.67
2022-11-05T01:01:36.689Z,12.30
2022-11-05T01:04:05.914Z,14.23
2022-11-05T01:06:34.626Z,11.80
2022-11-05T01:09:03.401Z,13.77
2022-11-05T01:11:37.372Z,13.37
2022-11-05T01:14:09.012Z,12.20
2022-11-05T01:16:38.053Z,16.63
2022-11-05T01:19:07.768Z,12.23
2022-11-05T01:21:36.467Z,10.70
2022-11-05T01:24:05.837Z,12.47
2022-11-05T01:26:36.006Z,13.47
2022-11-05T01:29:04.717Z,11.97
2022-11-05T01:31:33.458Z,13.00
2022-11-05T01:34:02.664Z,14.17
2022-11-05T01:36:31.406Z,11.60
2022-11-05T01:39:00.054Z,13.40
2022-11-05T01:41:28.823Z,12.30
2022-11-05T01:44:00.676Z,12.80
2022-11-05T01:46:35.444Z,12.20
2022-11-05T01:49:11.954Z,12.23
2022-11-05T01:51:41.517Z,12.47
2022-11-05T01:54:14.547Z,12.70
2022-11-05T01:56:47.667Z,11.13
2022-11-05T01:59:24.135Z,11.63
2022-11-05T02:01:53.500Z,12.50
2022-11-05T02:04:29.195Z,11.73
2022-11-05T02:06:58.226Z,10.93
2022-11-05T02:09:32.298Z,11.33
2022-11-05T02:12:01.196Z,14.40
2022-11-05T02:14:31.344Z,13.77
2022-11-05T02:17:06.606Z,11.47
2022-11-05T02:20:07.479Z,11.83
2022-11-05T02:23:11.548Z,12.17
2022-11-05T02:26:25.099Z,13.83
2022-11-05T02:29:26.645Z,13.10
2022-11-05T02:32:02.955Z,12.13
2022-11-05T02:34:41.643Z,11.00
2022-11-05T02:37:17.734Z,11.80
2022-11-05T02:39:52.551Z,12.17
2022-11-05T02:42:31.238Z,11.93
2022-11-05T02:45:07.609Z,11.00
2022-11-05T02:47:45.645Z,11.37
2022-11-05T02:50:24.942Z,13.17
2022-11-05T02:53:02.021Z,10.37
2022-11-05T02:55:35.689Z,11.47
2022-11-05T02:58:05.332Z,12.07
2022-11-05T03:00:43.757Z,10.27
2022-11-05T03:03:18.431Z,10.67
2022-11-05T03:05:59.613Z,11.37
2022-11-05T03:08:40.048Z,10.27
2022-11-05T03:11:15.579Z,11.83
2022-11-05T03:13:53.823Z,10.83
2022-11-05T03:16:30.826Z,12.77
2022-11-05T03:19:09.406Z,11.23
2022-11-05T03:21:48.786Z,9.33
2022-11-05T03:24:21.949Z,11.47
2022-11-05T03:26:56.913Z,11.17
2022-11-05T03:29:30.404Z,13.10
2022-11-05T03:32:02.026Z,10.90
2022-11-05T03:34:35.245Z,14.37
2022-11-05T03:37:07.646Z,11.87
2022-11-05T03:39:41.529Z,11.97
2022-11-05T03:42:14.022Z,10.33
2022-11-05T03:44:47.481Z,12.93
2022-11-05T03:47:20.391Z,10.43
2022-11-05T03:49:57.191Z,9.20
2022-11-05T03:52:31.596Z,11.83
2022-11-05T03:55:00.908Z,11.87
2022-11-05T03:57:33.381Z,11.13
2022-11-05T04:00:02.388Z,14.00
2022-11-05T04:02:40.885Z,11.70
2022-11-05T04:05:09.862Z,9.70
2022-11-05T04:07:57.618Z,9.93
2022-11-05T04:10:43.878Z,10.83
2022-11-05T04:13:28.012Z,10.87
2022-11-05T04:16:15.689Z,11.10
2022-11-05T04:18:45.160Z,10.67
2022-11-05T04:21:31.142Z,11.40
2022-11-05T04:24:10.323Z,13.40
2022-11-05T04:26:40.846Z,11.27
2022-11-05T04:29:27.524Z,13.67
2022-11-05T04:31:56.741Z,14.03
2022-11-05T04:34:25.482Z,12.70
2022-11-05T04:36:54.541Z,11.93
2022-11-05T04:39:24.770Z,16.17
2022-11-05T04:41:53.563Z,15.13
2022-11-05T04:44:22.347Z,14.87
2022-11-05T04:46:50.926Z,18.80
2022-11-05T04:49:19.597Z,18.70
2022-11-05T04:51:48.357Z,18.33
2022-11-05T04:54:17.921Z,17.70
2022-11-05T04:56:48.067Z,19.70
2022-11-05T04:59:16.692Z,18.10
2022-11-05T05:01:45.414Z,18.97
2022-11-05T05:04:14.725Z,19.07
2022-11-05T05:06:43.398Z,18.13
2022-11-05T05:09:12.152Z,18.60
2022-11-05T05:11:41.207Z,21.37
2022-11-05T05:14:11.688Z,17.67
2022-11-05T05:16:40.427Z,18.77
2022-11-05T05:19:09.005Z,19.60
2022-11-05T05:21:39.671Z,18.00
2022-11-05T05:24:12.012Z,21.00
2022-11-05T05:26:42.748Z,19.70
2022-11-05T05:29:13.850Z,18.50
2022-11-05T05:31:42.956Z,21.20
2022-11-05T05:34:13.610Z,20.07
2022-11-05T05:36:42.419Z,20.67
2022-11-05T05:39:11.551Z,23.90
2022-11-05T05:41:40.300Z,20.90
2022-11-05T05:44:09.490Z,21.23
2022-11-05T05:46:39.799Z,19.40
2022-11-05T05:49:12.340Z,21.17
2022-11-05T05:51:41.813Z,19.27
2022-11-05T05:54:11.913Z,19.90
2022-11-05T05:56:40.605Z,21.33
2022-11-05T05:59:09.710Z,24.23
2022-11-05T06:01:40.013Z,21.17
2022-11-05T06:04:09.030Z,21.53
2022-11-05T06:06:37.246Z,22.02
2022-11-05T06:12:22.083Z,20.47
2022-11-05T06:14:50.348Z,18.30
2022-11-05T06:17:19.934Z,23.73
2022-11-05T06:19:48.212Z,22.60
2022-11-05T06:22:16.469Z,24.33
2022-11-05T06:24:44.628Z,19.97
2022-11-05T06:27:12.824Z,21.70
2022-11-05T06:29:41.033Z,20.67
2022-11-05T06:32:09.258Z,19.70
2022-11-05T06:34:38.863Z,19.77
2022-11-05T06:37:07.063Z,21.07
2022-11-05T06:39:35.845Z,20.40
2022-11-05T06:42:18.084Z,20.33
2022-11-05T06:44:48.344Z,15.70
2022-11-05T06:47:16.519Z,18.80
2022-11-05T06:49:49.047Z,18.47
2022-11-05T06:52:17.740Z,17.43
2022-11-05T06:54:46.508Z,16.47
2022-11-05T06:57:14.952Z,17.10
2022-11-05T06:59:44.026Z,18.70
2022-11-05T07:02:14.104Z,18.10
2022-11-05T07:04:42.807Z,20.17
2022-11-05T07:07:12.390Z,17.83
2022-11-05T07:09:43.059Z,16.73
2022-11-05T07:12:11.293Z,17.17
2022-11-05T07:14:40.131Z,15.40
2022-11-05T07:28:25.244Z,20.20
2022-11-05T07:30:54.191Z,18.37
2022-11-05T07:33:22.756Z,20.87
2022-11-05T07:35:51.249Z,19.87
2022-11-05T07:38:20.368Z,19.27
2022-11-05T07:40:48.939Z,21.73
2022-11-05T07:43:17.831Z,20.60
2022-11-05T07:45:48.198Z,20.23
2022-11-05T07:48:16.769Z,18.20
2022-11-05T07:50:45.384Z,17.97
2022-11-05T07:53:15.648Z,19.07
2022-11-05T07:55:46.126Z,17.67
2022-11-05T07:58:15.302Z,18.70
2022-11-05T08:00:44.056Z,16.70
2022-11-05T08:03:16.194Z,16.47
2022-11-05T08:05:47.212Z,15.40
2022-11-05T08:08:17.976Z,17.83
2022-11-05T08:10:46.895Z,17.10
2022-11-05T08:13:16.333Z,17.23
2022-11-05T08:15:45.231Z,18.37
2022-11-05T08:18:17.465Z,18.20
2022-11-05T08:20:47.945Z,15.27
2022-11-05T08:23:16.627Z,16.57
2022-11-05T08:25:45.193Z,16.47
2022-11-05T08:28:14.295Z,18.80
2022-11-05T08:30:43.116Z,17.17
2022-11-05T08:33:15.094Z,16.93
2022-11-05T08:35:43.934Z,15.13
2022-11-05T08:38:14.946Z,15.67
2022-11-05T08:40:44.757Z,18.30
2022-11-05T08:43:15.643Z,15.40
2022-11-05T08:45:44.199Z,15.83
2022-11-05T08:48:16.445Z,16.67
2022-11-05T08:50:45.993Z,16.77
2022-11-05T08:53:14.886Z,15.57
2022-11-05T08:55:44.008Z,15.60
2022-11-05T08:58:18.434Z,16.30
2022-11-05T09:00:49.651Z,16.63
2022-11-05T09:03:20.115Z,17.83
2022-11-05T09:05:48.687Z,16.40
2022-11-05T09:08:18.908Z,16.03
2022-11-05T09:10:49.963Z,16.57
2022-11-05T09:13:20.093Z,17.40
2022-11-05T09:15:49.418Z,18.80
2022-11-05T09:18:21.159Z,18.87
2022-11-05T09:20:49.920Z,16.73
2022-11-05T09:23:18.825Z,17.30
2022-11-05T09:25:47.933Z,17.43
2022-11-05T09:28:20.580Z,17.13
2022-11-05T09:30:51.446Z,18.17
2022-11-05T09:33:23.345Z,17.23
2022-11-05T09:35:53.563Z,17.33
2022-11-05T09:38:22.270Z,17.97
2022-11-05T09:40:58.880Z,16.20
2022-11-05T09:43:32.798Z,17.17
2022-11-05T09:46:08.523Z,18.47
2022-11-05T09:48:42.255Z,18.23
2022-11-05T09:51:19.378Z,14.90
2022-11-05T09:53:53.645Z,19.30
2022-11-05T09:56:25.570Z,17.90
2022-11-05T09:58:59.463Z,18.00
2022-11-05T10:01:31.935Z,18.93
2022-11-05T10:04:08.973Z,15.33
2022-11-05T10:06:50.096Z,17.40
2022-11-05T10:09:25.149Z,14.93
2022-11-05T10:12:03.740Z,17.30
2022-11-05T10:14:37.903Z,19.77
2022-11-05T10:17:12.152Z,16.20
2022-11-05T10:19:45.649Z,20.37
2022-11-05T10:22:16.952Z,17.83
2022-11-05T10:24:47.594Z,18.30
2022-11-05T10:27:19.871Z,17.10
2022-11-05T10:29:49.531Z,17.43
2022-11-05T10:32:26.617Z,15.23
2022-11-05T10:35:01.004Z,16.87
2022-11-05T10:37:30.558Z,17.23
2022-11-05T10:39:59.773Z,19.13
2022-11-05T10:42:50.747Z,17.63
2022-11-05T10:45:31.671Z,14.80
2022-11-05T10:48:14.520Z,14.88
2022-11-05T10:50:45.783Z,16.35
2022-11-05T10:53:17.866Z,16.40
2022-11-05T10:55:48.906Z,14.50
2022-11-05T10:58:22.972Z,15.68
2022-11-05T11:01:08.532Z,14.18
2022-11-05T11:03:42.632Z,15.10
2022-11-05T11:06:22.981Z,19.07
2022-11-05T11:08:53.185Z,18.53
2022-11-05T11:11:30.795Z,15.57
2022-11-05T11:14:06.125Z,15.47
2022-11-05T11:16:40.155Z,16.00
2022-11-05T11:19:26.785Z,19.97
2022-11-05T11:22:23.690Z,18.07
2022-11-05T11:24:54.173Z,21.27
2022-11-05T11:27:29.820Z,20.67
2022-11-05T11:30:00.153Z,16.73
2022-11-05T11:32:37.578Z,17.83
2022-11-05T11:35:07.955Z,15.97
2022-11-05T11:37:42.292Z,16.27
2022-11-05T11:40:18.168Z,19.33
2022-11-05T11:42:48.729Z,17.13
2022-11-05T11:45:19.892Z,18.13
2022-11-05T11:47:50.942Z,17.80
2022-11-05T11:50:37.971Z,21.53
2022-11-05T11:53:28.681Z,19.47
2022-11-05T11:56:00.375Z,18.50
2022-11-05T11:58:40.717Z,17.93
2022-11-05T12:01:49.188Z,16.10
2022-11-05T12:04:39.233Z,17.23
2022-11-05T12:07:24.228Z,18.20
2022-11-05T12:10:29.281Z,17.77
2022-11-05T12:13:16.547Z,18.20
2022-11-05T12:15:50.873Z,15.43
2022-11-05T12:18:28.385Z,16.93
2022-11-05T12:21:15.346Z,17.07
2022-11-05T12:24:11.662Z,15.23
2022-11-05T12:26:53.790Z,15.80
2022-11-05T12:29:36.262Z,15.30
2022-11-05T12:32:30.447Z,16.17
2022-11-05T12:35:05.551Z,16.20
2022-11-05T12:37:38.865Z,14.37
2022-11-05T12:40:20.962Z,15.30
2022-11-05T12:43:09.025Z,13.20
2022-11-05T12:45:51.903Z,14.47
2022-11-05T12:48:47.607Z,15.20
2022-11-05T12:51:29.862Z,14.90
2022-11-05T12:54:08.370Z,15.20
2022-11-05T12:56:42.615Z,16.00
2022-11-05T12:59:20.669Z,14.37
2022-11-05T13:01:53.767Z,13.97
2022-11-05T13:04:34.208Z,12.80
2022-11-05T13:07:06.698Z,12.03
2022-11-05T13:09:39.617Z,11.20
2022-11-05T13:12:12.292Z,12.07
2022-11-05T13:14:46.856Z,14.73
2022-11-05T13:17:20.818Z,11.20
2022-11-05T13:19:55.387Z,14.87
2022-11-05T13:22:32.038Z,12.53
2022-11-05T13:25:06.177Z,13.87
2022-11-05T13:27:50.073Z,12.63
2022-11-05T13:30:22.023Z,9.33
2022-11-05T13:33:01.945Z,13.77
2022-11-05T13:35:35.899Z,13.10
2022-11-05T13:38:27.028Z,10.73
2022-11-05T13:41:08.877Z,8.97
2022-11-05T13:43:49.249Z,8.67
2022-11-05T13:46:30.192Z,10.00
2022-11-05T13:49:26.620Z,10.33
2022-11-05T13:51:56.875Z,14.87
2022-11-05T13:55:01.244Z,15.13
2022-11-05T13:57:47.102Z,14.10
2022-11-05T14:00:20.299Z,12.93
2022-11-05T14:02:53.248Z,10.77
2022-11-05T14:05:28.288Z,11.80
2022-11-05T14:07:58.680Z,12.93
2022-11-05T14:10:37.814Z,11.43
2022-11-05T14:13:19.117Z,12.50
2022-11-05T14:16:09.562Z,10.80
2022-11-05T14:18:44.362Z,12.43
2022-11-05T14:21:47.514Z,11.93
2022-11-05T14:24:47.373Z,12.93
2022-11-05T14:27:34.547Z,10.03
2022-11-05T14:30:23.899Z,12.13
2022-11-05T14:32:53.226Z,12.43
2022-11-05T14:35:39.828Z,13.87
2022-11-05T14:38:21.417Z,12.73
2022-11-05T14:40:51.085Z,11.47
2022-11-05T14:43:25.027Z,11.27
2022-11-05T14:45:56.932Z,11.23
2022-11-05T14:48:35.353Z,13.27
2022-11-05T14:51:04.284Z,13.33
2022-11-05T14:53:38.215Z,12.73
2022-11-05T14:56:10.107Z,16.13
2022-11-05T14:58:40.049Z,13.30
2022-11-05T15:01:10.174Z,14.27
2022-11-05T15:04:04.285Z,11.63
2022-11-05T15:06:35.307Z,10.70
2022-11-05T15:09:27.955Z,11.97
2022-11-05T15:12:09.050Z,12.30
2022-11-05T15:14:43.003Z,12.77
2022-11-05T15:17:19.164Z,13.43
2022-11-05T15:19:49.202Z,11.03
2022-11-05T15:22:29.600Z,12.50
2022-11-05T15:25:00.826Z,11.20
2022-11-05T15:27:49.633Z,11.37
2022-11-05T15:30:20.143Z,11.37
2022-11-05T15:32:48.818Z,13.57
2022-11-05T15:35:23.643Z,12.80
2022-11-05T15:37:57.415Z,13.13
2022-11-05T15:40:33.489Z,13.60
2022-11-05T15:43:17.646Z,13.17
2022-11-05T15:46:02.661Z,13.87
2022-11-05T15:48:31.498Z,13.43
2022-11-05T15:51:00.276Z,14.90
2022-11-05T15:53:56.105Z,13.20
2022-11-05T15:56:29.624Z,16.50
2022-11-05T15:59:02.113Z,16.83
2022-11-05T16:01:34.139Z,15.13
2022-11-05T16:04:09.720Z,15.53
2022-11-05T16:06:40.778Z,16.97
2022-11-05T16:09:20.798Z,14.37
2022-11-05T16:11:54.455Z,14.27
2022-11-05T16:14:22.998Z,15.23
2022-11-05T16:16:51.570Z,15.97
2022-11-05T16:19:40.199Z,17.73
2022-11-05T16:22:09.476Z,14.53
2022-11-05T16:24:38.086Z,18.20
2022-11-05T16:27:08.281Z,16.40
2022-11-05T16:29:38.520Z,16.53
2022-11-05T16:32:14.629Z,14.53
2022-11-05T16:34:46.881Z,16.27
2022-11-05T16:37:17.455Z,20.13
2022-11-05T16:39:46.303Z,15.00
2022-11-05T16:42:48.726Z,18.33
2022-11-05T16:45:21.706Z,16.87
2022-11-05T16:47:50.817Z,17.80
2022-11-05T16:50:23.612Z,17.70
2022-11-05T16:52:52.220Z,17.80
2022-11-05T16:55:21.339Z,17.00
2022-11-05T16:57:52.298Z,19.27
2022-11-05T17:00:23.614Z,21.57
2022-11-05T17:02:52.249Z,19.97
2022-11-05T17:05:24.430Z,19.17
2022-11-05T17:07:53.247Z,19.20
2022-11-05T17:10:22.739Z,20.03
2022-11-05T17:12:51.711Z,19.40
2022-11-05T17:15:24.955Z,21.43
2022-11-05T17:17:54.705Z,19.30
2022-11-05T17:20:32.403Z,19.83
2022-11-05T17:23:03.938Z,22.90
2022-11-05T17:25:33.253Z,18.33
2022-11-05T17:28:01.701Z,19.60
2022-11-05T17:30:31.855Z,28.00
2022-11-05T17:33:00.383Z,20.10
2022-11-05T17:35:29.080Z,23.17
2022-11-05T17:37:57.583Z,21.60
2022-11-05T17:40:28.448Z,20.23
2022-11-05T17:42:57.139Z,19.33
2022-11-05T17:45:25.667Z,20.93
2022-11-05T17:47:55.560Z,20.07
2022-11-05T17:50:24.344Z,22.93
2022-11-05T17:52:52.862Z,21.60
2022-11-05T17:55:21.772Z,21.23
2022-11-05T17:57:53.258Z,21.97
2022-11-05T18:00:23.767Z,22.83
2022-11-05T18:02:55.331Z,20.30
2022-11-05T18:05:30.929Z,23.87
2022-11-05T18:07:59.998Z,21.23
2022-11-05T18:10:28.605Z,21.77
2022-11-05T18:12:57.190Z,20.33
2022-11-05T18:15:25.734Z,20.10
2022-11-05T18:17:55.656Z,21.80
2022-11-05T18:20:24.219Z,20.23
2022-11-05T18:22:52.876Z,24.03
2022-11-05T18:25:21.368Z,24.23
2022-11-05T18:27:49.851Z,24.23
2022-11-05T18:30:18.298Z,22.43
2022-11-05T18:32:47.801Z,26.83
2022-11-05T18:35:17.867Z,21.47
2022-11-05T18:37:46.440Z,20.43
2022-11-05T18:40:15.172Z,22.30
2022-11-05T18:42:43.888Z,19.57
2022-11-05T18:45:13.335Z,20.33
2022-11-05T18:47:41.873Z,23.17
2022-11-05T18:50:11.954Z,23.40
2022-11-05T18:52:41.889Z,21.03
2022-11-05T18:55:10.972Z,20.63
2022-11-05T18:57:39.738Z,20.30
2022-11-05T19:00:09.566Z,25.13
2022-11-05T19:02:38.131Z,18.87
2022-11-05T19:05:28.027Z,22.63
2022-11-05T19:07:57.732Z,24.40
2022-11-05T19:10:26.553Z,23.23
2022-11-05T19:12:55.182Z,22.77
2022-11-05T19:15:23.813Z,21.23
2022-11-05T19:17:52.331Z,25.43
2022-11-05T19:20:21.066Z,26.10
2022-11-05T19:22:49.690Z,27.20
2022-11-05T19:25:19.859Z,24.83
2022-11-05T19:27:48.364Z,26.50
2022-11-05T19:30:16.920Z,29.00
2022-11-05T19:32:45.363Z,28.07
2022-11-05T19:35:13.919Z,26.77
2022-11-05T19:37:42.292Z,25.83
2022-11-05T19:40:12.423Z,25.30
2022-11-05T19:42:42.299Z,25.30
2022-11-05T19:45:38.115Z,24.93
2022-11-05T19:48:00.407Z,22.47
2022-11-05T19:50:28.971Z,29.97
2022-11-05T19:52:57.438Z,24.73
2022-11-05T19:55:26.258Z,27.43
2022-11-05T19:57:56.237Z,29.90
2022-11-05T20:00:24.681Z,25.47
2022-11-05T20:02:53.378Z,31.00
2022-11-05T20:05:22.079Z,28.30
2022-11-05T20:07:53.043Z,28.10
2022-11-05T20:10:22.432Z,23.40
2022-11-05T20:12:50.944Z,25.67
2022-11-05T20:15:20.957Z,25.67
2022-11-05T20:17:51.269Z,22.83
2022-11-05T20:20:20.721Z,26.13
2022-11-05T20:22:49.228Z,25.33
2022-11-05T20:25:17.797Z,22.00
2022-11-05T20:27:46.404Z,21.93
2022-11-05T20:30:14.970Z,20.60
2022-11-05T20:32:45.239Z,19.27
2022-11-05T20:35:13.712Z,21.67
2022-11-05T20:37:42.197Z,22.67
2022-11-05T20:40:14.125Z,20.93
2022-11-05T20:42:43.020Z,19.00
2022-11-05T20:45:12.320Z,24.17
2022-11-05T20:47:40.887Z,21.30
2022-11-05T20:50:11.588Z,22.40
2022-11-05T20:52:40.535Z,19.97
2022-11-05T20:55:10.292Z,19.93
2022-11-05T20:57:38.973Z,22.47
2022-11-05T21:00:09.181Z,20.80
2022-11-05T21:02:39.831Z,19.47
2022-11-05T21:05:10.869Z,19.07
2022-11-05T21:07:39.356Z,19.70
2022-11-05T21:10:08.539Z,21.10
2022-11-05T21:12:37.022Z,18.23
2022-11-05T21:15:06.288Z,18.50
2022-11-05T21:17:34.750Z,19.47
2022-11-05T21:20:03.285Z,17.60
2022-11-05T21:22:33.231Z,20.27
2022-11-05T21:25:01.731Z,18.23
2022-11-05T21:27:30.224Z,21.53
2022-11-05T21:29:58.813Z,17.20
2022-11-05T21:32:27.305Z,22.47
2022-11-05T21:34:55.746Z,19.83
2022-11-05T21:37:24.199Z,20.27
2022-11-05T21:39:54.894Z,21.47
2022-11-05T21:42:23.346Z,21.83
2022-11-05T21:44:56.313Z,23.57
2022-11-05T21:47:29.465Z,19.13
2022-11-05T21:49:58.038Z,17.33
2022-11-05T21:52:46.480Z,18.60
2022-11-05T21:55:36.394Z,21.33
2022-11-05T21:58:30.492Z,21.70
2022-11-05T22:00:59.212Z,21.00
2022-11-05T22:03:27.691Z,20.03
2022-11-05T22:05:58.346Z,19.50
2022-11-05T22:08:27.294Z,24.67
2022-11-05T22:10:57.234Z,21.53
2022-11-05T22:13:25.747Z,21.53
2022-11-05T22:15:57.243Z,25.07
2022-11-05T22:18:25.705Z,21.93
2022-11-05T22:20:54.107Z,23.23
2022-11-05T22:23:22.670Z,27.07
2022-11-05T22:25:51.078Z,23.33
2022-11-05T22:28:21.884Z,28.87
2022-11-05T22:30:50.347Z,29.13
2022-11-05T22:33:18.741Z,32.03
2022-11-05T22:35:47.312Z,27.87
2022-11-05T22:38:15.816Z,27.97
2022-11-05T22:40:44.493Z,30.70
2022-11-05T22:43:12.958Z,31.53
2022-11-05T22:45:43.964Z,27.57
2022-11-05T22:48:12.691Z,33.70
2022-11-05T22:50:41.480Z,33.70
2022-11-05T22:53:09.968Z,30.77
2022-11-05T22:55:40.681Z,33.93
2022-11-05T22:58:09.208Z,31.90
2022-11-05T23:00:39.944Z,25.87
2022-11-05T23:03:09.958Z,28.03
2022-11-05T23:05:38.505Z,25.90
2022-11-05T23:08:24.589Z,29.37
2022-11-05T23:11:22.730Z,28.97
2022-11-05T23:13:51.191Z,30.07
2022-11-05T23:16:36.668Z,33.33
2022-11-05T23:19:23.806Z,29.07
2022-11-05T23:22:09.546Z,29.53
2022-11-05T23:24:38.759Z,32.97
2022-11-05T23:27:07.317Z,27.30
2022-11-05T23:29:36.257Z,26.37
2022-11-05T23:32:21.930Z,27.77
2022-11-05T23:34:52.050Z,35.03
2022-11-05T23:37:38.169Z,27.63
2022-11-05T23:40:09.092Z,31.40
2022-11-05T23:42:55.156Z,32.17
2022-11-05T23:45:40.739Z,32.60
2022-11-05T23:48:19.397Z,35.03
2022-11-05T23:50:52.882Z,29.60
2022-11-05T23:53:21.662Z,29.37
2022-11-05T23:55:50.344Z,31.10
2022-11-05T23:58:19.658Z,29.47
